Time;durP1;ratioP1;P1;durP2;ratioP2;P2;SDS_P1;SDS_P2;PMS_P1;PMS_P2;Temp;Humidity;BMP_temperature;BMP_pressure;BME280_temperature;BME280_humidity;BME280_pressure;Samples;Min_cycle;Max_cycle;Signal;HPM_P1;HPM_P2
2023/12/01 00:00:07;;;;;;;77.95;41.08;;;;;;;;;;2091870;28;20381;-60
2023/12/01 00:01:08;;;;;;;78.30;41.53;;;;;;;;;;2091501;28;20428;-60
2023/12/01 00:02:10;;;;;;;74.43;39.50;;;;;;;;;;2091811;28;20053;-59
2023/12/01 00:03:11;;;;;;;76.25;40.03;;;;;;;;;;2091912;28;20041;-60
2023/12/01 00:04:12;;;;;;;66.35;38.63;;;;;;;;;;2091719;28;20450;-60
2023/12/01 00:05:12;;;;;;;80.32;41.58;;;;;;;;;;2091049;28;20086;-60
2023/12/01 00:06:13;;;;;;;88.82;42.85;;;;;;;;;;2091280;28;20033;-60
2023/12/01 00:07:14;;;;;;;78.10;41.05;;;;;;;;;;2092005;28;20120;-60
2023/12/01 00:08:14;;;;;;;66.88;36.00;;;;;;;;;;2091809;28;20029;-60
2023/12/01 00:09:15;;;;;;;71.03;37.63;;;;;;;;;;2091866;28;20435;-60
2023/12/01 00:10:16;;;;;;;70.18;35.88;;;;;;;;;;2091710;28;20075;-60
2023/12/01 00:11:17;;;;;;;73.38;39.15;;;;;;;;;;2091685;28;20045;-59
2023/12/01 00:12:18;;;;;;;71.93;39.25;;;;;;;;;;2091784;28;20355;-60
2023/12/01 00:13:18;;;;;;;73.35;38.92;;;;;;;;;;2091551;28;20048;-60
2023/12/01 00:14:19;;;;;;;79.35;41.38;;;;;;;;;;2091780;28;20033;-61
2023/12/01 00:15:20;;;;;;;76.45;41.17;;;;;;;;;;2091806;28;20036;-60
2023/12/01 00:16:20;;;;;;;68.38;37.90;;;;;;;;;;2091606;28;20040;-61
2023/12/01 00:17:21;;;;;;;71.85;40.97;;;;;;;;;;2091536;28;20037;-61
2023/12/01 00:18:22;;;;;;;73.18;39.92;;;;;;;;;;2091863;28;20523;-61
2023/12/01 00:19:23;;;;;;;63.78;37.38;;;;;;;;;;2091775;28;20484;-60
2023/12/01 00:20:23;;;;;;;71.57;40.17;;;;;;;;;;2091536;28;20434;-61
2023/12/01 00:21:24;;;;;;;68.65;38.85;;;;;;;;;;2092168;28;20477;-61
2023/12/01 00:22:25;;;;;;;70.43;39.50;;;;;;;;;;2091507;28;20021;-61
2023/12/01 00:23:26;;;;;;;68.63;38.75;;;;;;;;;;2091746;28;20032;-61
2023/12/01 00:24:26;;;;;;;69.18;40.35;;;;;;;;;;2091452;28;20397;-61
2023/12/01 00:25:27;;;;;;;69.75;38.08;;;;;;;;;;2091117;28;20052;-61
2023/12/01 00:26:28;;;;;;;69.82;35.90;;;;;;;;;;2090897;28;20032;-61
2023/12/01 00:27:33;;;;;;;71.13;37.60;;;;;;;;;;2091150;28;20037;-61
2023/12/01 00:28:35;;;;;;;69.07;38.53;;;;;;;;;;2090650;28;20044;-61
2023/12/01 00:29:36;;;;;;;69.07;38.08;;;;;;;;;;2091439;28;20037;-61
2023/12/01 00:30:37;;;;;;;73.22;38.17;;;;;;;;;;2091274;28;20056;-61
2023/12/01 00:31:37;;;;;;;70.65;40.20;;;;;;;;;;2090578;28;20056;-61
2023/12/01 00:32:38;;;;;;;73.05;38.72;;;;;;;;;;2091164;28;20045;-61
2023/12/01 00:33:39;;;;;;;71.38;40.00;;;;;;;;;;2091221;28;20098;-61
2023/12/01 00:34:40;;;;;;;69.43;40.30;;;;;;;;;;2090644;28;20147;-60
2023/12/01 00:35:41;;;;;;;74.22;40.97;;;;;;;;;;2091629;28;20037;-61
2023/12/01 00:36:41;;;;;;;73.05;40.30;;;;;;;;;;2091735;28;20048;-61
2023/12/01 00:37:43;;;;;;;69.32;40.30;;;;;;;;;;2091621;28;20029;-60
2023/12/01 00:38:44;;;;;;;67.78;39.80;;;;;;;;;;2091649;28;20489;-60
2023/12/01 00:39:44;;;;;;;67.78;38.53;;;;;;;;;;2091319;28;20033;-60
2023/12/01 00:40:45;;;;;;;71.65;40.28;;;;;;;;;;2091738;28;20048;-60
2023/12/01 00:41:46;;;;;;;72.25;40.15;;;;;;;;;;2091256;28;20041;-60
2023/12/01 00:42:46;;;;;;;72.43;41.53;;;;;;;;;;2090878;28;20060;-60
2023/12/01 00:43:49;;;;;;;65.18;38.08;;;;;;;;;;2090789;28;20437;-60
2023/12/01 00:44:50;;;;;;;65.13;38.13;;;;;;;;;;2082671;28;20030;-60
2023/12/01 00:45:50;;;;;;;68.47;37.67;;;;;;;;;;2090312;28;20033;-60
2023/12/01 00:46:51;;;;;;;65.32;37.90;;;;;;;;;;2091290;28;20033;-60
2023/12/01 00:47:52;;;;;;;63.13;36.55;;;;;;;;;;2090701;28;20439;-61
2023/12/01 00:48:53;;;;;;;65.13;37.53;;;;;;;;;;2090610;28;20425;-60
2023/12/01 00:49:54;;;;;;;65.18;37.55;;;;;;;;;;2090638;28;20085;-60
2023/12/01 00:50:54;;;;;;;65.53;38.63;;;;;;;;;;2082080;28;20041;-61
2023/12/01 00:51:55;;;;;;;66.13;37.83;;;;;;;;;;2090747;28;20075;-60
2023/12/01 00:52:56;;;;;;;66.60;38.45;;;;;;;;;;2091083;28;20040;-60
2023/12/01 00:53:56;;;;;;;71.90;39.95;;;;;;;;;;2091269;28;20386;-61
2023/12/01 00:54:57;;;;;;;66.93;39.38;;;;;;;;;;2091552;28;20442;-61
2023/12/01 00:55:58;;;;;;;71.95;40.08;;;;;;;;;;2091291;28;20032;-61
2023/12/01 00:56:59;;;;;;;70.35;41.28;;;;;;;;;;2082640;28;20042;-60
2023/12/01 00:57:59;;;;;;;69.05;39.47;;;;;;;;;;2090593;28;20041;-61
2023/12/01 00:59:00;;;;;;;67.75;38.78;;;;;;;;;;2090469;28;20041;-61
2023/12/01 01:00:01;;;;;;;65.10;38.13;;;;;;;;;;2090604;28;20500;-61
2023/12/01 01:01:02;;;;;;;70.55;42.42;;;;;;;;;;2091372;28;20520;-61
2023/12/01 01:02:03;;;;;;;70.10;37.28;;;;;;;;;;2091505;28;20044;-61
2023/12/01 01:03:03;;;;;;;68.28;38.50;;;;;;;;;;2090532;28;20541;-60
2023/12/01 01:04:04;;;;;;;72.88;40.78;;;;;;;;;;2082374;28;20489;-60
2023/12/01 01:05:05;;;;;;;67.28;39.35;;;;;;;;;;2090715;28;20024;-61
2023/12/01 01:06:06;;;;;;;68.43;38.97;;;;;;;;;;2089289;28;20417;-61
2023/12/01 01:07:07;;;;;;;67.15;37.78;;;;;;;;;;2090401;28;20119;-61
2023/12/01 01:08:07;;;;;;;65.85;38.20;;;;;;;;;;2090905;28;20037;-61
2023/12/01 01:09:09;;;;;;;69.95;38.17;;;;;;;;;;2091108;28;20473;-61
2023/12/01 01:10:09;;;;;;;71.45;39.33;;;;;;;;;;2090800;28;20035;-61
2023/12/01 01:11:10;;;;;;;72.93;39.78;;;;;;;;;;2082612;28;20044;-61
2023/12/01 01:12:11;;;;;;;72.93;41.63;;;;;;;;;;2090591;28;20041;-61
2023/12/01 01:13:12;;;;;;;72.38;39.88;;;;;;;;;;2091117;28;20218;-62
2023/12/01 01:14:12;;;;;;;74.85;40.80;;;;;;;;;;2090466;28;20041;-62
2023/12/01 01:15:13;;;;;;;72.15;39.38;;;;;;;;;;2090889;28;20021;-62
2023/12/01 01:16:14;;;;;;;70.00;39.75;;;;;;;;;;2091104;28;20040;-62
2023/12/01 01:17:15;;;;;;;77.25;43.25;;;;;;;;;;2091048;28;20511;-62
2023/12/01 01:18:15;;;;;;;80.20;43.42;;;;;;;;;;2091297;28;20037;-63
2023/12/01 01:19:16;;;;;;;72.80;40.80;;;;;;;;;;2090846;28;20044;-62
2023/12/01 01:20:17;;;;;;;74.20;40.05;;;;;;;;;;2089893;28;20041;-62
2023/12/01 01:21:18;;;;;;;85.72;40.15;;;;;;;;;;2090466;28;20041;-62
2023/12/01 01:22:19;;;;;;;69.38;39.38;;;;;;;;;;2090564;28;20045;-63
2023/12/01 01:23:19;;;;;;;264.73;61.10;;;;;;;;;;2091315;28;20067;-62
2023/12/01 01:24:20;;;;;;;70.05;39.97;;;;;;;;;;2091175;28;20469;-62
2023/12/01 01:25:21;;;;;;;69.78;39.63;;;;;;;;;;2091170;28;20099;-63
2023/12/01 01:26:22;;;;;;;70.85;40.47;;;;;;;;;;2090401;28;20140;-63
2023/12/01 01:27:22;;;;;;;67.45;38.55;;;;;;;;;;2089936;28;20072;-63
2023/12/01 01:28:23;;;;;;;80.03;43.65;;;;;;;;;;2091022;28;20049;-63
2023/12/01 01:29:24;;;;;;;73.20;41.35;;;;;;;;;;2090449;28;20124;-62
2023/12/01 01:30:25;;;;;;;79.35;41.83;;;;;;;;;;2090106;28;20041;-63
2023/12/01 01:31:26;;;;;;;70.07;39.95;;;;;;;;;;2091190;28;20477;-64
2023/12/01 01:32:27;;;;;;;75.22;41.08;;;;;;;;;;2090969;28;20053;-63
2023/12/01 01:33:27;;;;;;;74.53;41.95;;;;;;;;;;2090959;28;20121;-63
2023/12/01 01:34:28;;;;;;;92.90;44.05;;;;;;;;;;2090285;28;20049;-63
2023/12/01 01:35:30;;;;;;;74.05;40.38;;;;;;;;;;2081458;28;20057;-63
2023/12/01 01:36:31;;;;;;;68.88;38.33;;;;;;;;;;2082467;28;20041;-63
2023/12/01 01:37:33;;;;;;;72.53;39.03;;;;;;;;;;2090467;28;20033;-64
2023/12/01 01:38:34;;;;;;;65.95;35.45;;;;;;;;;;2090935;28;20044;-63
2023/12/01 01:39:34;;;;;;;68.90;37.72;;;;;;;;;;2090978;28;20040;-63
2023/12/01 01:40:36;;;;;;;74.85;40.00;;;;;;;;;;2090888;28;20064;-63
2023/12/01 01:41:36;;;;;;;78.45;39.35;;;;;;;;;;2090481;28;20044;-64
2023/12/01 01:42:37;;;;;;;76.97;39.58;;;;;;;;;;2090089;28;20045;-63
2023/12/01 01:43:38;;;;;;;68.03;36.30;;;;;;;;;;2091109;28;20029;-63
2023/12/01 01:44:38;;;;;;;135.60;44.83;;;;;;;;;;2089970;28;20048;-63
2023/12/01 01:45:39;;;;;;;163.27;47.75;;;;;;;;;;2082366;28;20513;-63
2023/12/01 01:46:40;;;;;;;65.93;35.22;;;;;;;;;;2089969;28;20064;-63
2023/12/01 01:47:41;;;;;;;80.18;39.53;;;;;;;;;;2090874;28;20036;-63
2023/12/01 01:48:43;;;;;;;81.50;41.58;;;;;;;;;;2090253;28;20037;-63
2023/12/01 01:49:44;;;;;;;69.47;37.22;;;;;;;;;;2090229;28;20036;-63
2023/12/01 01:50:45;;;;;;;80.57;39.88;;;;;;;;;;2081701;28;20069;-63
2023/12/01 01:51:45;;;;;;;68.28;37.78;;;;;;;;;;2074426;28;20398;-63
2023/12/01 01:52:46;;;;;;;81.03;40.25;;;;;;;;;;2081964;28;20129;-63
2023/12/01 01:53:47;;;;;;;72.57;38.45;;;;;;;;;;2082620;28;20045;-63
2023/12/01 01:54:48;;;;;;;65.57;37.10;;;;;;;;;;2090184;28;20052;-63
2023/12/01 01:55:49;;;;;;;61.35;34.63;;;;;;;;;;2089579;28;20048;-63
2023/12/01 01:56:53;;;;;;;70.50;38.42;;;;;;;;;;2074080;28;20096;-63
2023/12/01 01:57:53;;;;;;;65.32;36.75;;;;;;;;;;2082112;28;20052;-63
2023/12/01 01:58:54;;;;;;;89.50;39.38;;;;;;;;;;2089990;28;20052;-63
2023/12/01 01:59:55;;;;;;;69.20;37.85;;;;;;;;;;2081134;28;20074;-63
2023/12/01 02:00:56;;;;;;;65.88;35.65;;;;;;;;;;2081911;28;20397;-63
2023/12/01 02:01:57;;;;;;;59.53;33.40;;;;;;;;;;2082258;28;20465;-63
2023/12/01 02:02:57;;;;;;;63.25;35.05;;;;;;;;;;2081649;28;20037;-63
2023/12/01 02:03:58;;;;;;;68.20;35.13;;;;;;;;;;2090170;28;20028;-63
2023/12/01 02:04:59;;;;;;;138.82;44.97;;;;;;;;;;2090462;28;20045;-64
2023/12/01 02:06:06;;;;;;;700.88;101.25;;;;;;;;;;2089945;28;20045;-63
2023/12/01 02:07:08;;;;;;;156.35;48.13;;;;;;;;;;2090192;28;20068;-63
2023/12/01 02:08:22;;;;;;;124.35;45.70;;;;;;;;;;2090130;28;20029;-64
2023/12/01 02:09:23;;;;;;;73.60;37.00;;;;;;;;;;2090384;28;20032;-63
2023/12/01 02:10:23;;;;;;;66.15;36.08;;;;;;;;;;2090678;28;20057;-63
2023/12/01 02:11:25;;;;;;;69.30;37.78;;;;;;;;;;2090310;28;20416;-63
2023/12/01 02:12:25;;;;;;;336.77;71.43;;;;;;;;;;2082109;28;20409;-63
2023/12/01 02:13:27;;;;;;;75.30;40.83;;;;;;;;;;2090055;28;20037;-63
2023/12/01 02:14:27;;;;;;;74.80;38.92;;;;;;;;;;2097509;28;20047;-63
2023/12/01 02:15:32;;;;;;;70.70;38.20;;;;;;;;;;2106667;28;20052;-63
2023/12/01 02:16:32;;;;;;;74.15;39.90;;;;;;;;;;2089918;28;20044;-65
2023/12/01 02:17:33;;;;;;;81.47;40.35;;;;;;;;;;2090104;28;20039;-63
2023/12/01 02:18:34;;;;;;;68.93;36.15;;;;;;;;;;2089759;28;20523;-63
2023/12/01 02:19:35;;;;;;;73.35;39.88;;;;;;;;;;2106637;28;20032;-63
2023/12/01 02:20:35;;;;;;;69.95;38.85;;;;;;;;;;2097976;28;20043;-63
2023/12/01 02:21:36;;;;;;;144.80;42.60;;;;;;;;;;2089532;28;20064;-63
2023/12/01 02:22:37;;;;;;;65.30;37.55;;;;;;;;;;2082009;28;20038;-63
2023/12/01 02:23:37;;;;;;;68.32;38.03;;;;;;;;;;2090123;28;20032;-62
2023/12/01 02:24:38;;;;;;;63.55;36.97;;;;;;;;;;2107106;28;20036;-63
2023/12/01 02:25:39;;;;;;;75.13;39.55;;;;;;;;;;2106622;28;20407;-63
2023/12/01 02:26:40;;;;;;;72.28;37.08;;;;;;;;;;2090983;28;20033;-63
2023/12/01 02:27:41;;;;;;;71.35;38.47;;;;;;;;;;2090256;28;20110;-63
2023/12/01 02:28:41;;;;;;;73.55;38.30;;;;;;;;;;2090154;28;20064;-63
2023/12/01 02:29:42;;;;;;;69.10;36.78;;;;;;;;;;2090250;28;20036;-63
2023/12/01 02:30:48;;;;;;;61.80;35.78;;;;;;;;;;2090342;28;20053;-63
2023/12/01 02:31:49;;;;;;;68.93;38.03;;;;;;;;;;2090777;28;20072;-63
2023/12/01 02:32:50;;;;;;;75.32;38.22;;;;;;;;;;2090450;28;20417;-63
2023/12/01 02:33:53;;;;;;;69.30;37.45;;;;;;;;;;2090553;28;20469;-63
2023/12/01 02:34:54;;;;;;;62.33;36.22;;;;;;;;;;2089229;28;20033;-63
2023/12/01 02:35:55;;;;;;;67.30;36.10;;;;;;;;;;2081572;28;20029;-63
2023/12/01 02:36:58;;;;;;;66.55;38.17;;;;;;;;;;2081940;28;20046;-63
2023/12/01 02:37:59;;;;;;;64.40;35.22;;;;;;;;;;2089872;28;20041;-63
2023/12/01 02:39:00;;;;;;;81.70;42.05;;;;;;;;;;2089808;28;20041;-63
2023/12/01 02:40:01;;;;;;;87.78;43.55;;;;;;;;;;2089343;28;20044;-63
2023/12/01 02:41:02;;;;;;;69.95;37.17;;;;;;;;;;2089250;28;20045;-63
2023/12/01 02:42:03;;;;;;;75.60;39.58;;;;;;;;;;2089694;28;20049;-63
2023/12/01 02:43:03;;;;;;;79.03;40.58;;;;;;;;;;2090430;28;20060;-63
2023/12/01 02:44:04;;;;;;;342.50;70.03;;;;;;;;;;2080902;28;20513;-63
2023/12/01 02:45:05;;;;;;;81.65;40.97;;;;;;;;;;2081523;28;20470;-63
2023/12/01 02:46:06;;;;;;;80.28;42.58;;;;;;;;;;2089876;28;20045;-64
2023/12/01 02:47:09;;;;;;;227.77;52.75;;;;;;;;;;2089540;28;20056;-64
2023/12/01 02:48:10;;;;;;;269.45;61.65;;;;;;;;;;2090397;28;20389;-63
2023/12/01 02:49:11;;;;;;;75.00;39.88;;;;;;;;;;2090407;28;20037;-63
2023/12/01 02:50:12;;;;;;;73.72;40.15;;;;;;;;;;2089468;28;20029;-63
2023/12/01 02:51:13;;;;;;;69.30;37.53;;;;;;;;;;2089993;28;20025;-63
2023/12/01 02:52:13;;;;;;;139.27;48.97;;;;;;;;;;2089803;28;20040;-63
2023/12/01 02:53:15;;;;;;;108.38;43.95;;;;;;;;;;2089994;28;20025;-63
2023/12/01 02:54:16;;;;;;;74.13;40.60;;;;;;;;;;2089433;28;20041;-63
2023/12/01 02:55:17;;;;;;;146.20;51.00;;;;;;;;;;2089179;28;20477;-63
2023/12/01 02:56:18;;;;;;;70.32;37.22;;;;;;;;;;2090459;28;20424;-63
2023/12/01 02:57:19;;;;;;;86.70;43.38;;;;;;;;;;2089734;28;20102;-63
2023/12/01 02:58:19;;;;;;;79.85;42.95;;;;;;;;;;2089797;28;20061;-63
2023/12/01 02:59:20;;;;;;;76.88;41.80;;;;;;;;;;2090535;28;20021;-63
2023/12/01 03:00:22;;;;;;;78.43;42.22;;;;;;;;;;2089494;28;20136;-63
2023/12/01 03:01:23;;;;;;;82.80;42.33;;;;;;;;;;2089563;28;20104;-63
2023/12/01 03:02:27;;;;;;;98.57;43.42;;;;;;;;;;2090289;28;20045;-63
2023/12/01 03:03:28;;;;;;;74.93;40.63;;;;;;;;;;2089947;28;20059;-63
2023/12/01 03:04:29;;;;;;;96.13;43.60;;;;;;;;;;2089630;28;20043;-63
2023/12/01 03:05:29;;;;;;;108.07;46.20;;;;;;;;;;2089679;28;20479;-63
2023/12/01 03:06:30;;;;;;;104.30;45.35;;;;;;;;;;2090019;28;20044;-63
2023/12/01 03:07:31;;;;;;;97.90;45.97;;;;;;;;;;2089886;28;20128;-63
2023/12/01 03:08:32;;;;;;;92.93;45.08;;;;;;;;;;2080879;28;20052;-63
2023/12/01 03:09:33;;;;;;;81.53;41.58;;;;;;;;;;2081643;28;20044;-63
2023/12/01 03:10:34;;;;;;;85.93;42.30;;;;;;;;;;2089858;28;20045;-63
2023/12/01 03:11:35;;;;;;;92.13;44.65;;;;;;;;;;2090553;28;20476;-63
2023/12/01 03:12:36;;;;;;;87.32;42.90;;;;;;;;;;2090566;28;20052;-63
2023/12/01 03:13:36;;;;;;;96.13;45.30;;;;;;;;;;2090236;28;20086;-63
2023/12/01 03:14:37;;;;;;;336.02;70.03;;;;;;;;;;2090236;28;20060;-63
2023/12/01 03:15:40;;;;;;;75.93;39.40;;;;;;;;;;2090181;28;20468;-63
2023/12/01 03:16:41;;;;;;;76.85;40.55;;;;;;;;;;2089288;28;20045;-63
2023/12/01 03:17:42;;;;;;;87.68;42.97;;;;;;;;;;2089666;28;20044;-63
2023/12/01 03:18:43;;;;;;;112.63;47.60;;;;;;;;;;2089099;28;20535;-63
2023/12/01 03:19:47;;;;;;;84.32;41.45;;;;;;;;;;2089665;28;20028;-63
2023/12/01 03:20:47;;;;;;;82.13;42.03;;;;;;;;;;2090636;28;20041;-63
2023/12/01 03:21:48;;;;;;;98.75;46.03;;;;;;;;;;2089916;28;20528;-63
2023/12/01 03:22:52;;;;;;;77.55;39.20;;;;;;;;;;2090016;28;20607;-62
2023/12/01 03:23:52;;;;;;;86.18;42.95;;;;;;;;;;2090292;28;20064;-63
2023/12/01 03:24:53;;;;;;;97.97;44.80;;;;;;;;;;2090442;28;20029;-63
2023/12/01 03:25:54;;;;;;;84.90;41.28;;;;;;;;;;2089920;28;20033;-63
2023/12/01 03:26:54;;;;;;;96.13;43.40;;;;;;;;;;2090481;28;20036;-63
2023/12/01 03:27:55;;;;;;;77.40;40.78;;;;;;;;;;2090381;28;20037;-63
2023/12/01 03:28:56;;;;;;;85.38;42.83;;;;;;;;;;2089696;28;20137;-63
2023/12/01 03:29:57;;;;;;;140.18;48.53;;;;;;;;;;2090014;28;20063;-63
2023/12/01 03:30:57;;;;;;;120.65;51.28;;;;;;;;;;2090224;28;20071;-62
2023/12/01 03:31:58;;;;;;;96.97;45.38;;;;;;;;;;2090596;28;20540;-63
2023/12/01 03:32:59;;;;;;;78.32;40.58;;;;;;;;;;2089937;28;20033;-63
2023/12/01 03:34:01;;;;;;;75.28;39.42;;;;;;;;;;2089847;28;20422;-63
2023/12/01 03:35:02;;;;;;;88.70;44.33;;;;;;;;;;2089223;28;20036;-63
2023/12/01 03:36:03;;;;;;;79.28;39.17;;;;;;;;;;2098003;28;20044;-63
2023/12/01 03:37:03;;;;;;;119.93;46.63;;;;;;;;;;2106223;28;20064;-63
2023/12/01 03:38:04;;;;;;;90.22;41.75;;;;;;;;;;2090807;28;20051;-64
2023/12/01 03:39:06;;;;;;;77.78;40.25;;;;;;;;;;2090644;28;20053;-62
2023/12/01 03:40:08;;;;;;;77.95;38.88;;;;;;;;;;2090587;28;20036;-62
2023/12/01 03:41:08;;;;;;;86.40;42.58;;;;;;;;;;2090409;28;20049;-62
2023/12/01 03:42:09;;;;;;;94.40;43.40;;;;;;;;;;2090314;28;20048;-63
2023/12/01 03:43:10;;;;;;;80.22;39.08;;;;;;;;;;2090409;28;20037;-63
2023/12/01 03:44:10;;;;;;;79.45;40.10;;;;;;;;;;2090149;28;20033;-62
2023/12/01 03:45:12;;;;;;;87.85;43.03;;;;;;;;;;2090046;28;20116;-63
2023/12/01 03:46:12;;;;;;;81.75;41.25;;;;;;;;;;2089863;28;20040;-63
2023/12/01 03:47:13;;;;;;;93.45;43.67;;;;;;;;;;2089475;28;20036;-63
2023/12/01 03:48:14;;;;;;;94.78;45.03;;;;;;;;;;2089684;28;20480;-63
2023/12/01 03:49:14;;;;;;;96.28;46.55;;;;;;;;;;2097894;28;20052;-63
2023/12/01 03:50:18;;;;;;;99.13;45.60;;;;;;;;;;2097279;28;20048;-63
2023/12/01 03:51:18;;;;;;;89.38;43.67;;;;;;;;;;2081581;28;20044;-63
2023/12/01 03:52:19;;;;;;;72.88;39.53;;;;;;;;;;2089477;28;20496;-63
2023/12/01 03:53:20;;;;;;;91.70;42.78;;;;;;;;;;2090199;28;20037;-63
2023/12/01 03:54:21;;;;;;;95.38;45.33;;;;;;;;;;2089779;28;20115;-63
2023/12/01 03:55:21;;;;;;;89.70;44.47;;;;;;;;;;2090137;28;20397;-63
2023/12/01 03:56:22;;;;;;;87.82;44.10;;;;;;;;;;2090376;28;20051;-63
2023/12/01 03:57:23;;;;;;;76.53;40.53;;;;;;;;;;2089294;28;20048;-63
2023/12/01 03:58:24;;;;;;;79.30;39.65;;;;;;;;;;2089424;28;20037;-64
2023/12/01 03:59:25;;;;;;;80.20;40.67;;;;;;;;;;2089646;28;20053;-63
2023/12/01 04:00:32;;;;;;;87.75;44.17;;;;;;;;;;2089526;28;20056;-63
2023/12/01 04:01:33;;;;;;;72.80;39.83;;;;;;;;;;2090047;28;20068;-63
2023/12/01 04:02:40;;;;;;;91.85;45.28;;;;;;;;;;2090108;28;20045;-62
2023/12/01 04:03:41;;;;;;;105.78;46.72;;;;;;;;;;2090313;28;20037;-64
2023/12/01 04:04:42;;;;;;;101.30;46.80;;;;;;;;;;2090284;28;20036;-64
2023/12/01 04:05:43;;;;;;;108.18;47.88;;;;;;;;;;2089881;28;20045;-63
2023/12/01 04:06:43;;;;;;;127.78;50.95;;;;;;;;;;2090063;28;20022;-63
2023/12/01 04:07:50;;;;;;;101.22;46.17;;;;;;;;;;2089588;28;20218;-63
2023/12/01 04:08:53;;;;;;;103.90;46.22;;;;;;;;;;2089744;28;20040;-63
2023/12/01 04:09:54;;;;;;;104.30;44.95;;;;;;;;;;2090241;28;20449;-65
2023/12/01 04:10:55;;;;;;;101.13;44.67;;;;;;;;;;2090002;28;20029;-64
2023/12/01 04:11:56;;;;;;;104.00;45.45;;;;;;;;;;2089682;28;20041;-63
2023/12/01 04:13:05;;;;;;;97.93;45.42;;;;;;;;;;2081166;28;20068;-63
2023/12/01 04:14:06;;;;;;;95.32;45.58;;;;;;;;;;2089798;28;20029;-63
2023/12/01 04:15:08;;;;;;;88.68;42.47;;;;;;;;;;2089571;28;20037;-63
2023/12/01 04:16:09;;;;;;;100.65;46.08;;;;;;;;;;2089345;28;20033;-63
2023/12/01 04:17:10;;;;;;;101.22;45.05;;;;;;;;;;2089251;28;20036;-63
2023/12/01 04:18:11;;;;;;;97.45;44.53;;;;;;;;;;2081177;28;20099;-63
2023/12/01 04:19:12;;;;;;;101.05;46.90;;;;;;;;;;2089426;28;20033;-63
2023/12/01 04:20:26;;;;;;;105.05;46.83;;;;;;;;;;2089339;28;20044;-64
2023/12/01 04:21:27;;;;;;;109.78;46.70;;;;;;;;;;2089640;28;20033;-64
2023/12/01 04:22:28;;;;;;;119.45;48.45;;;;;;;;;;2090189;28;20057;-63
2023/12/01 04:23:29;;;;;;;116.95;47.70;;;;;;;;;;2090118;28;20065;-64
2023/12/01 04:24:33;;;;;;;141.32;51.95;;;;;;;;;;2090002;28;20488;-63
2023/12/01 04:25:35;;;;;;;97.88;45.78;;;;;;;;;;2089457;28;20073;-64
2023/12/01 04:26:36;;;;;;;120.32;48.35;;;;;;;;;;2089377;28;20060;-64
2023/12/01 04:27:36;;;;;;;104.75;46.97;;;;;;;;;;2090305;28;20171;-63
2023/12/01 04:28:38;;;;;;;114.95;48.15;;;;;;;;;;2090175;28;20064;-64
2023/12/01 04:29:38;;;;;;;104.68;46.10;;;;;;;;;;2090314;28;20044;-63
2023/12/01 04:30:40;;;;;;;87.82;38.83;;;;;;;;;;2090114;28;20060;-63
2023/12/01 04:31:40;;;;;;;126.78;48.88;;;;;;;;;;2090536;28;20045;-63
2023/12/01 04:32:42;;;;;;;112.53;47.20;;;;;;;;;;2089940;28;20033;-63
2023/12/01 04:33:42;;;;;;;116.93;48.42;;;;;;;;;;2089816;28;20037;-63
2023/12/01 04:34:43;;;;;;;138.20;52.05;;;;;;;;;;2090192;28;20044;-64
2023/12/01 04:35:44;;;;;;;135.57;51.20;;;;;;;;;;2089473;28;20033;-64
2023/12/01 04:36:45;;;;;;;145.05;55.10;;;;;;;;;;2089688;28;20057;-63
2023/12/01 04:37:46;;;;;;;139.88;52.47;;;;;;;;;;2090163;28;20397;-63
2023/12/01 04:38:47;;;;;;;142.55;53.70;;;;;;;;;;2090154;28;20053;-63
2023/12/01 04:39:47;;;;;;;124.68;50.45;;;;;;;;;;2090041;28;20044;-63
2023/12/01 04:40:50;;;;;;;130.65;51.55;;;;;;;;;;2090234;28;20036;-63
2023/12/01 04:41:50;;;;;;;133.63;52.88;;;;;;;;;;2091440;28;20028;-63
2023/12/01 04:42:51;;;;;;;131.07;52.42;;;;;;;;;;2091383;28;20128;-63
2023/12/01 04:43:52;;;;;;;118.93;48.88;;;;;;;;;;2091138;28;20056;-63
2023/12/01 04:44:53;;;;;;;106.18;46.00;;;;;;;;;;2091374;28;20068;-64
2023/12/01 04:45:53;;;;;;;116.30;51.00;;;;;;;;;;2091470;28;20040;-63
2023/12/01 04:46:54;;;;;;;109.82;47.00;;;;;;;;;;2091492;28;20029;-64
2023/12/01 04:47:55;;;;;;;125.22;48.65;;;;;;;;;;2091458;28;20511;-64
2023/12/01 04:48:56;;;;;;;114.50;46.13;;;;;;;;;;2091324;28;20115;-63
2023/12/01 04:49:57;;;;;;;124.43;50.60;;;;;;;;;;2091722;28;20048;-63
2023/12/01 04:50:58;;;;;;;170.27;52.95;;;;;;;;;;2091519;28;20037;-63
2023/12/01 04:51:59;;;;;;;125.40;49.50;;;;;;;;;;2091034;28;20041;-64
2023/12/01 04:53:01;;;;;;;121.25;48.50;;;;;;;;;;2091550;28;20025;-64
2023/12/01 04:54:06;;;;;;;123.65;48.40;;;;;;;;;;2091221;28;20025;-64
2023/12/01 04:55:08;;;;;;;105.55;45.58;;;;;;;;;;2091335;28;20041;-64
2023/12/01 04:56:09;;;;;;;111.40;46.05;;;;;;;;;;2091591;28;20507;-64
2023/12/01 04:57:10;;;;;;;117.43;46.70;;;;;;;;;;2091041;28;20063;-64
2023/12/01 04:58:11;;;;;;;141.68;50.80;;;;;;;;;;2091375;28;20079;-64
2023/12/01 04:59:11;;;;;;;130.02;50.70;;;;;;;;;;2091141;28;20048;-65
2023/12/01 05:00:19;;;;;;;115.00;47.35;;;;;;;;;;2091296;28;20033;-64
2023/12/01 05:01:20;;;;;;;210.98;58.95;;;;;;;;;;2091010;28;20045;-64
2023/12/01 05:02:23;;;;;;;109.10;45.83;;;;;;;;;;2091263;28;20053;-64
2023/12/01 05:03:24;;;;;;;100.45;44.75;;;;;;;;;;2091532;28;20032;-64
2023/12/01 05:04:25;;;;;;;114.53;47.20;;;;;;;;;;2091410;28;20044;-64
2023/12/01 05:05:29;;;;;;;174.73;53.35;;;;;;;;;;2091235;28;20396;-65
2023/12/01 05:06:30;;;;;;;114.50;47.67;;;;;;;;;;2091498;28;20052;-64
2023/12/01 05:07:31;;;;;;;95.13;43.47;;;;;;;;;;2091858;28;20101;-65
2023/12/01 05:08:33;;;;;;;90.72;42.58;;;;;;;;;;2091554;28;20045;-65
2023/12/01 05:09:33;;;;;;;81.28;39.83;;;;;;;;;;2091529;28;20377;-65
2023/12/01 05:10:35;;;;;;;76.65;38.08;;;;;;;;;;2091182;28;20025;-64
2023/12/01 05:11:35;;;;;;;95.20;42.28;;;;;;;;;;2090645;28;20056;-65
2023/12/01 05:12:37;;;;;;;95.10;43.47;;;;;;;;;;2090531;28;20471;-66
2023/12/01 05:13:37;;;;;;;86.18;40.45;;;;;;;;;;2091113;28;20071;-66
2023/12/01 05:14:38;;;;;;;106.30;45.53;;;;;;;;;;2091367;28;20507;-67
2023/12/01 05:15:39;;;;;;;97.53;44.55;;;;;;;;;;2091153;28;20025;-68
2023/12/01 05:16:41;;;;;;;95.80;44.25;;;;;;;;;;2091103;28;20040;-68
2023/12/01 05:17:48;;;;;;;101.65;44.33;;;;;;;;;;2091231;28;20041;-68
2023/12/01 05:18:49;;;;;;;99.50;43.65;;;;;;;;;;2091398;28;20033;-69
2023/12/01 05:19:50;;;;;;;101.90;44.30;;;;;;;;;;2091241;28;20433;-69
2023/12/01 05:20:50;;;;;;;103.68;44.30;;;;;;;;;;2091291;28;20476;-69
2023/12/01 05:21:51;;;;;;;98.18;41.25;;;;;;;;;;2091442;28;20036;-68
2023/12/01 05:22:52;;;;;;;98.57;40.65;;;;;;;;;;2091121;28;20021;-67
2023/12/01 05:23:53;;;;;;;90.07;39.47;;;;;;;;;;2090947;28;20037;-67
2023/12/01 05:24:54;;;;;;;108.90;44.35;;;;;;;;;;2091707;28;20148;-67
2023/12/01 05:25:54;;;;;;;84.78;39.80;;;;;;;;;;2091024;28;20091;-68
2023/12/01 05:26:55;;;;;;;93.18;41.83;;;;;;;;;;2091045;28;20431;-67
2023/12/01 05:27:56;;;;;;;97.10;42.97;;;;;;;;;;2091301;28;20473;-67
2023/12/01 05:28:57;;;;;;;111.82;46.70;;;;;;;;;;2091139;28;20041;-68
2023/12/01 05:29:58;;;;;;;628.88;99.03;;;;;;;;;;2090884;28;20117;-68
2023/12/01 05:30:58;;;;;;;109.30;47.38;;;;;;;;;;2090756;28;20048;-68
2023/12/01 05:31:59;;;;;;;212.40;59.67;;;;;;;;;;2090998;28;20061;-67
2023/12/01 05:33:00;;;;;;;339.88;67.70;;;;;;;;;;2091069;28;20033;-68
2023/12/01 05:34:01;;;;;;;114.05;48.20;;;;;;;;;;2091486;28;20056;-68
2023/12/01 05:35:02;;;;;;;117.05;45.90;;;;;;;;;;2090439;28;20052;-68
2023/12/01 05:36:03;;;;;;;108.28;45.75;;;;;;;;;;2090749;28;20036;-68
2023/12/01 05:37:03;;;;;;;98.90;43.38;;;;;;;;;;2091463;28;20065;-68
2023/12/01 05:38:04;;;;;;;107.18;45.13;;;;;;;;;;2091068;28;20041;-68
2023/12/01 05:39:12;;;;;;;109.30;45.15;;;;;;;;;;2091117;28;20199;-68
2023/12/01 05:40:16;;;;;;;123.95;46.58;;;;;;;;;;2091652;28;20461;-68
2023/12/01 05:41:17;;;;;;;119.28;47.33;;;;;;;;;;2090929;28;20041;-68
2023/12/01 05:42:18;;;;;;;113.35;45.15;;;;;;;;;;2091115;28;20049;-67
2023/12/01 05:43:18;;;;;;;111.63;47.17;;;;;;;;;;2091155;28;20403;-67
2023/12/01 05:44:19;;;;;;;96.32;43.22;;;;;;;;;;2090653;28;20076;-67
2023/12/01 05:45:21;;;;;;;122.70;46.83;;;;;;;;;;2090883;28;20049;-68
2023/12/01 05:46:21;;;;;;;97.22;43.35;;;;;;;;;;2091022;28;20028;-68
2023/12/01 05:47:22;;;;;;;100.18;44.10;;;;;;;;;;2091126;28;20041;-68
2023/12/01 05:48:23;;;;;;;105.50;43.45;;;;;;;;;;2091184;28;20025;-68
2023/12/01 05:49:24;;;;;;;110.05;45.58;;;;;;;;;;2090916;28;20056;-68
2023/12/01 05:50:25;;;;;;;413.88;80.47;;;;;;;;;;2091028;28;20060;-68
2023/12/01 05:51:26;;;;;;;91.50;41.30;;;;;;;;;;2090813;28;20481;-69
2023/12/01 05:52:26;;;;;;;100.13;43.05;;;;;;;;;;2090752;28;20055;-69
2023/12/01 05:53:27;;;;;;;93.15;41.58;;;;;;;;;;2090930;28;20029;-69
2023/12/01 05:54:28;;;;;;;96.07;42.45;;;;;;;;;;2090891;28;20059;-69